sensor_id;sensor_type;location;lat;lon;timestamp;P1;durP1;ratioP1;P2;durP2;ratioP2
11328;SDS011;5719;42.714;23.732;2024-03-23T00:52:09;15.60;;;8.27;;
11328;SDS011;5719;42.714;23.732;2024-03-23T00:54:35;19.88;;;7.45;;
11328;SDS011;5719;42.714;23.732;2024-03-23T00:57:02;13.70;;;7.60;;
11328;SDS011;5719;42.714;23.732;2024-03-23T00:59:28;13.27;;;7.32;;
11328;SDS011;5719;42.714;23.732;2024-03-23T01:01:56;16.08;;;8.10;;
11328;SDS011;5719;42.714;23.732;2024-03-23T01:04:22;13.77;;;7.90;;
11328;SDS011;5719;42.714;23.732;2024-03-23T01:06:48;14.63;;;7.88;;
11328;SDS011;5719;42.714;23.732;2024-03-23T01:09:15;13.05;;;7.53;;
11328;SDS011;5719;42.714;23.732;2024-03-23T01:11:42;13.13;;;7.28;;
11328;SDS011;5719;42.714;23.732;2024-03-23T01:14:08;11.75;;;6.88;;
11328;SDS011;5719;42.714;23.732;2024-03-23T01:16:35;12.93;;;6.65;;
11328;SDS011;5719;42.714;23.732;2024-03-23T01:19:00;10.90;;;6.53;;
11328;SDS011;5719;42.714;23.732;2024-03-23T01:21:27;11.80;;;7.05;;
11328;SDS011;5719;42.714;23.732;2024-03-23T01:23:53;14.57;;;7.10;;
11328;SDS011;5719;42.714;23.732;2024-03-23T01:26:21;11.13;;;6.50;;
11328;SDS011;5719;42.714;23.732;2024-03-23T01:28:47;13.07;;;6.95;;
11328;SDS011;5719;42.714;23.732;2024-03-23T01:31:14;11.68;;;6.47;;
11328;SDS011;5719;42.714;23.732;2024-03-23T01:33:41;15.68;;;7.10;;
11328;SDS011;5719;42.714;23.732;2024-03-23T01:36:07;13.15;;;6.57;;
11328;SDS011;5719;42.714;23.732;2024-03-23T01:38:33;11.75;;;7.13;;
11328;SDS011;5719;42.714;23.732;2024-03-23T01:41:01;14.45;;;7.53;;
11328;SDS011;5719;42.714;23.732;2024-03-23T01:43:28;12.02;;;6.75;;
11328;SDS011;5719;42.714;23.732;2024-03-23T01:45:55;12.50;;;6.97;;
11328;SDS011;5719;42.714;23.732;2024-03-23T01:48:21;14.00;;;7.15;;
11328;SDS011;5719;42.714;23.732;2024-03-23T01:50:47;17.92;;;7.38;;
11328;SDS011;5719;42.714;23.732;2024-03-23T01:53:13;11.82;;;6.43;;
11328;SDS011;5719;42.714;23.732;2024-03-23T01:55:42;13.48;;;7.60;;
11328;SDS011;5719;42.714;23.732;2024-03-23T01:58:08;12.90;;;7.38;;
11328;SDS011;5719;42.714;23.732;2024-03-23T02:00:36;12.93;;;7.53;;
11328;SDS011;5719;42.714;23.732;2024-03-23T02:03:02;10.27;;;6.93;;
11328;SDS011;5719;42.714;23.732;2024-03-23T02:05:48;13.88;;;7.22;;
11328;SDS011;5719;42.714;23.732;2024-03-23T02:08:14;15.20;;;7.10;;
11328;SDS011;5719;42.714;23.732;2024-03-23T02:10:42;14.18;;;7.28;;
11328;SDS011;5719;42.714;23.732;2024-03-23T02:13:08;11.55;;;6.88;;
11328;SDS011;5719;42.714;23.732;2024-03-23T02:15:34;14.13;;;6.90;;
11328;SDS011;5719;42.714;23.732;2024-03-23T02:18:01;11.13;;;6.97;;
11328;SDS011;5719;42.714;23.732;2024-03-23T02:20:28;11.43;;;7.15;;
11328;SDS011;5719;42.714;23.732;2024-03-23T02:22:56;16.23;;;7.93;;
11328;SDS011;5719;42.714;23.732;2024-03-23T02:25:22;16.40;;;9.05;;
11328;SDS011;5719;42.714;23.732;2024-03-23T02:27:48;11.75;;;7.45;;
11328;SDS011;5719;42.714;23.732;2024-03-23T02:30:15;14.90;;;7.97;;
11328;SDS011;5719;42.714;23.732;2024-03-23T02:32:41;15.63;;;8.60;;
11328;SDS011;5719;42.714;23.732;2024-03-23T02:35:07;17.45;;;8.27;;
11328;SDS011;5719;42.714;23.732;2024-03-23T02:37:33;13.77;;;7.65;;
11328;SDS011;5719;42.714;23.732;2024-03-23T02:40:01;10.32;;;6.72;;
11328;SDS011;5719;42.714;23.732;2024-03-23T02:42:27;12.80;;;7.63;;
11328;SDS011;5719;42.714;23.732;2024-03-23T02:44:54;12.05;;;7.28;;
11328;SDS011;5719;42.714;23.732;2024-03-23T02:47:21;13.38;;;7.07;;
11328;SDS011;5719;42.714;23.732;2024-03-23T02:49:46;10.93;;;6.82;;
11328;SDS011;5719;42.714;23.732;2024-03-23T02:52:13;12.13;;;7.40;;
11328;SDS011;5719;42.714;23.732;2024-03-23T02:54:39;12.82;;;6.63;;
11328;SDS011;5719;42.714;23.732;2024-03-23T02:57:08;11.70;;;7.38;;
11328;SDS011;5719;42.714;23.732;2024-03-23T02:59:34;12.65;;;7.13;;
11328;SDS011;5719;42.714;23.732;2024-03-23T03:02:01;12.02;;;6.80;;
11328;SDS011;5719;42.714;23.732;2024-03-23T03:04:27;12.02;;;7.07;;
11328;SDS011;5719;42.714;23.732;2024-03-23T03:06:53;10.77;;;6.35;;
11328;SDS011;5719;42.714;23.732;2024-03-23T03:09:19;12.80;;;6.78;;
11328;SDS011;5719;42.714;23.732;2024-03-23T03:11:46;14.05;;;7.72;;
11328;SDS011;5719;42.714;23.732;2024-03-23T03:14:13;13.98;;;7.18;;
11328;SDS011;5719;42.714;23.732;2024-03-23T03:16:40;9.93;;;6.22;;
11328;SDS011;5719;42.714;23.732;2024-03-23T03:19:05;11.10;;;6.47;;
11328;SDS011;5719;42.714;23.732;2024-03-23T03:21:32;12.43;;;6.55;;
11328;SDS011;5719;42.714;23.732;2024-03-23T03:23:58;12.15;;;6.57;;
11328;SDS011;5719;42.714;23.732;2024-03-23T03:26:25;10.70;;;6.32;;
11328;SDS011;5719;42.714;23.732;2024-03-23T03:28:50;10.95;;;6.15;;
11328;SDS011;5719;42.714;23.732;2024-03-23T03:31:19;13.32;;;7.20;;
11328;SDS011;5719;42.714;23.732;2024-03-23T03:33:44;9.90;;;6.13;;
11328;SDS011;5719;42.714;23.732;2024-03-23T03:36:11;10.98;;;6.55;;
11328;SDS011;5719;42.714;23.732;2024-03-23T03:38:37;16.30;;;6.35;;
11328;SDS011;5719;42.714;23.732;2024-03-23T03:41:04;14.63;;;6.93;;
11328;SDS011;5719;42.714;23.732;2024-03-23T03:43:31;9.93;;;6.05;;
11328;SDS011;5719;42.714;23.732;2024-03-23T03:45:58;12.18;;;6.80;;
11328;SDS011;5719;42.714;23.732;2024-03-23T03:48:26;12.38;;;7.25;;
11328;SDS011;5719;42.714;23.732;2024-03-23T03:50:53;13.88;;;7.40;;
11328;SDS011;5719;42.714;23.732;2024-03-23T03:53:19;12.52;;;6.95;;
11328;SDS011;5719;42.714;23.732;2024-03-23T03:55:46;13.55;;;6.68;;
11328;SDS011;5719;42.714;23.732;2024-03-23T03:58:12;25.27;;;7.40;;
11328;SDS011;5719;42.714;23.732;2024-03-23T04:00:39;12.48;;;7.22;;
11328;SDS011;5719;42.714;23.732;2024-03-23T04:03:05;15.77;;;7.80;;
11328;SDS011;5719;42.714;23.732;2024-03-23T04:05:33;14.88;;;7.65;;
11328;SDS011;5719;42.714;23.732;2024-03-23T04:07:59;15.32;;;6.70;;
11328;SDS011;5719;42.714;23.732;2024-03-23T04:10:26;12.85;;;6.80;;
11328;SDS011;5719;42.714;23.732;2024-03-23T04:12:52;13.98;;;7.53;;
11328;SDS011;5719;42.714;23.732;2024-03-23T04:15:18;12.93;;;7.30;;
11328;SDS011;5719;42.714;23.732;2024-03-23T04:17:44;14.68;;;7.15;;
11328;SDS011;5719;42.714;23.732;2024-03-23T04:20:11;12.43;;;7.07;;
11328;SDS011;5719;42.714;23.732;2024-03-23T04:22:40;16.75;;;7.30;;
11328;SDS011;5719;42.714;23.732;2024-03-23T04:25:07;14.38;;;7.88;;
11328;SDS011;5719;42.714;23.732;2024-03-23T04:27:33;17.13;;;8.43;;
11328;SDS011;5719;42.714;23.732;2024-03-23T04:30:00;20.20;;;10.90;;
11328;SDS011;5719;42.714;23.732;2024-03-23T04:32:27;23.27;;;10.82;;
11328;SDS011;5719;42.714;23.732;2024-03-23T04:34:54;24.77;;;12.25;;
11328;SDS011;5719;42.714;23.732;2024-03-23T04:37:19;18.17;;;9.30;;
11328;SDS011;5719;42.714;23.732;2024-03-23T04:39:48;14.93;;;8.55;;
11328;SDS011;5719;42.714;23.732;2024-03-23T04:42:14;15.88;;;8.63;;
11328;SDS011;5719;42.714;23.732;2024-03-23T04:44:42;20.05;;;9.70;;
11328;SDS011;5719;42.714;23.732;2024-03-23T04:47:08;22.30;;;9.57;;
11328;SDS011;5719;42.714;23.732;2024-03-23T04:49:34;16.13;;;9.00;;
11328;SDS011;5719;42.714;23.732;2024-03-23T04:52:02;15.68;;;8.90;;
11328;SDS011;5719;42.714;23.732;2024-03-23T04:54:29;16.98;;;8.60;;
11328;SDS011;5719;42.714;23.732;2024-03-23T04:56:58;16.10;;;8.93;;
11328;SDS011;5719;42.714;23.732;2024-03-23T04:59:25;19.25;;;9.23;;
11328;SDS011;5719;42.714;23.732;2024-03-23T05:01:51;18.00;;;8.55;;
11328;SDS011;5719;42.714;23.732;2024-03-23T05:04:18;19.67;;;9.10;;
11328;SDS011;5719;42.714;23.732;2024-03-23T05:06:44;17.52;;;8.57;;
11328;SDS011;5719;42.714;23.732;2024-03-23T05:09:10;16.70;;;8.90;;
11328;SDS011;5719;42.714;23.732;2024-03-23T05:11:36;16.70;;;8.27;;
11328;SDS011;5719;42.714;23.732;2024-03-23T05:14:05;14.80;;;7.80;;
11328;SDS011;5719;42.714;23.732;2024-03-23T05:16:31;16.02;;;8.57;;
11328;SDS011;5719;42.714;23.732;2024-03-23T05:18:57;15.25;;;7.30;;
11328;SDS011;5719;42.714;23.732;2024-03-23T05:21:23;15.50;;;7.40;;
11328;SDS011;5719;42.714;23.732;2024-03-23T05:23:50;18.10;;;7.90;;
11328;SDS011;5719;42.714;23.732;2024-03-23T05:26:16;15.10;;;7.40;;
11328;SDS011;5719;42.714;23.732;2024-03-23T05:28:43;13.77;;;7.63;;
11328;SDS011;5719;42.714;23.732;2024-03-23T05:31:10;10.82;;;6.70;;
11328;SDS011;5719;42.714;23.732;2024-03-23T05:33:37;18.75;;;7.82;;
11328;SDS011;5719;42.714;23.732;2024-03-23T05:36:03;14.68;;;7.85;;
11328;SDS011;5719;42.714;23.732;2024-03-23T05:38:31;12.95;;;7.22;;
11328;SDS011;5719;42.714;23.732;2024-03-23T05:40:57;15.85;;;7.20;;
11328;SDS011;5719;42.714;23.732;2024-03-23T05:43:25;14.10;;;6.50;;
11328;SDS011;5719;42.714;23.732;2024-03-23T05:45:54;14.48;;;7.35;;
11328;SDS011;5719;42.714;23.732;2024-03-23T05:48:22;15.75;;;7.22;;
11328;SDS011;5719;42.714;23.732;2024-03-23T05:50:48;12.25;;;7.13;;
11328;SDS011;5719;42.714;23.732;2024-03-23T05:53:16;13.75;;;7.32;;
11328;SDS011;5719;42.714;23.732;2024-03-23T05:55:42;15.80;;;6.63;;
11328;SDS011;5719;42.714;23.732;2024-03-23T05:58:09;12.85;;;7.22;;
11328;SDS011;5719;42.714;23.732;2024-03-23T06:00:35;19.20;;;7.30;;
11328;SDS011;5719;42.714;23.732;2024-03-23T06:03:02;13.07;;;7.65;;
11328;SDS011;5719;42.714;23.732;2024-03-23T06:05:29;13.45;;;7.55;;
11328;SDS011;5719;42.714;23.732;2024-03-23T06:07:56;20.00;;;7.47;;
11328;SDS011;5719;42.714;23.732;2024-03-23T06:10:22;16.13;;;7.55;;
11328;SDS011;5719;42.714;23.732;2024-03-23T06:12:49;15.50;;;7.43;;
11328;SDS011;5719;42.714;23.732;2024-03-23T06:15:17;14.57;;;7.95;;
11328;SDS011;5719;42.714;23.732;2024-03-23T06:17:43;13.98;;;7.90;;
11328;SDS011;5719;42.714;23.732;2024-03-23T06:20:09;15.23;;;7.97;;
11328;SDS011;5719;42.714;23.732;2024-03-23T06:22:37;17.13;;;7.97;;
11328;SDS011;5719;42.714;23.732;2024-03-23T06:25:04;18.33;;;8.10;;
11328;SDS011;5719;42.714;23.732;2024-03-23T06:27:30;11.90;;;6.93;;
11328;SDS011;5719;42.714;23.732;2024-03-23T06:29:58;12.68;;;7.10;;
11328;SDS011;5719;42.714;23.732;2024-03-23T06:32:23;9.57;;;6.78;;
11328;SDS011;5719;42.714;23.732;2024-03-23T06:34:50;10.77;;;6.22;;
11328;SDS011;5719;42.714;23.732;2024-03-23T06:37:16;10.32;;;6.80;;
11328;SDS011;5719;42.714;23.732;2024-03-23T06:39:45;11.48;;;6.10;;
11328;SDS011;5719;42.714;23.732;2024-03-23T06:42:11;11.55;;;6.78;;
11328;SDS011;5719;42.714;23.732;2024-03-23T06:44:38;10.70;;;6.38;;
11328;SDS011;5719;42.714;23.732;2024-03-23T06:47:04;8.93;;;5.90;;
11328;SDS011;5719;42.714;23.732;2024-03-23T07:00:45;7.00;;;5.55;;
11328;SDS011;5719;42.714;23.732;2024-03-23T07:03:12;12.13;;;6.10;;
11328;SDS011;5719;42.714;23.732;2024-03-23T07:05:38;7.18;;;5.75;;
11328;SDS011;5719;42.714;23.732;2024-03-23T07:08:05;9.48;;;6.22;;
11328;SDS011;5719;42.714;23.732;2024-03-23T07:10:31;10.63;;;5.50;;
11328;SDS011;5719;42.714;23.732;2024-03-23T07:12:58;9.20;;;5.38;;
11328;SDS011;5719;42.714;23.732;2024-03-23T07:15:24;7.72;;;5.38;;
11328;SDS011;5719;42.714;23.732;2024-03-23T07:17:52;7.68;;;5.47;;
11328;SDS011;5719;42.714;23.732;2024-03-23T07:20:18;6.63;;;5.13;;
11328;SDS011;5719;42.714;23.732;2024-03-23T07:22:45;9.55;;;5.43;;
11328;SDS011;5719;42.714;23.732;2024-03-23T07:25:11;11.27;;;5.68;;
11328;SDS011;5719;42.714;23.732;2024-03-23T07:27:37;12.10;;;5.28;;
11328;SDS011;5719;42.714;23.732;2024-03-23T07:30:03;6.90;;;4.93;;
11328;SDS011;5719;42.714;23.732;2024-03-23T07:32:31;8.73;;;5.57;;
11328;SDS011;5719;42.714;23.732;2024-03-23T07:34:58;10.75;;;5.43;;
11328;SDS011;5719;42.714;23.732;2024-03-23T07:37:25;9.32;;;5.20;;
11328;SDS011;5719;42.714;23.732;2024-03-23T07:39:51;7.80;;;5.20;;
11328;SDS011;5719;42.714;23.732;2024-03-23T07:42:17;9.27;;;5.63;;
11328;SDS011;5719;42.714;23.732;2024-03-23T07:44:43;9.68;;;5.35;;
11328;SDS011;5719;42.714;23.732;2024-03-23T07:47:11;8.90;;;5.75;;
11328;SDS011;5719;42.714;23.732;2024-03-23T07:49:37;10.02;;;6.15;;
11328;SDS011;5719;42.714;23.732;2024-03-23T07:52:06;7.53;;;5.28;;
11328;SDS011;5719;42.714;23.732;2024-03-23T07:54:33;33.38;;;7.47;;
11328;SDS011;5719;42.714;23.732;2024-03-23T07:57:00;8.13;;;6.05;;
11328;SDS011;5719;42.714;23.732;2024-03-23T07:59:25;8.77;;;5.82;;
11328;SDS011;5719;42.714;23.732;2024-03-23T08:01:53;9.10;;;5.80;;
11328;SDS011;5719;42.714;23.732;2024-03-23T08:04:20;9.00;;;6.32;;
11328;SDS011;5719;42.714;23.732;2024-03-23T08:06:47;9.70;;;6.03;;
11328;SDS011;5719;42.714;23.732;2024-03-23T08:09:14;10.13;;;6.82;;
11328;SDS011;5719;42.714;23.732;2024-03-23T08:11:40;9.05;;;5.80;;
11328;SDS011;5719;42.714;23.732;2024-03-23T08:14:09;9.68;;;5.93;;
11328;SDS011;5719;42.714;23.732;2024-03-23T08:16:35;9.38;;;6.30;;
11328;SDS011;5719;42.714;23.732;2024-03-23T08:19:01;9.45;;;6.32;;
11328;SDS011;5719;42.714;23.732;2024-03-23T08:21:28;14.10;;;6.15;;
11328;SDS011;5719;42.714;23.732;2024-03-23T08:23:54;13.82;;;6.45;;
11328;SDS011;5719;42.714;23.732;2024-03-23T08:26:22;8.85;;;5.95;;
11328;SDS011;5719;42.714;23.732;2024-03-23T08:28:48;8.70;;;5.95;;
11328;SDS011;5719;42.714;23.732;2024-03-23T08:31:15;9.70;;;6.32;;
11328;SDS011;5719;42.714;23.732;2024-03-23T08:33:41;11.63;;;5.65;;
11328;SDS011;5719;42.714;23.732;2024-03-23T08:36:09;9.93;;;6.45;;
11328;SDS011;5719;42.714;23.732;2024-03-23T08:38:37;9.15;;;6.45;;
11328;SDS011;5719;42.714;23.732;2024-03-23T08:41:05;11.88;;;6.30;;
11328;SDS011;5719;42.714;23.732;2024-03-23T08:43:35;13.32;;;6.82;;
11328;SDS011;5719;42.714;23.732;2024-03-23T08:46:03;9.43;;;6.22;;
11328;SDS011;5719;42.714;23.732;2024-03-23T08:48:30;10.57;;;6.22;;
11328;SDS011;5719;42.714;23.732;2024-03-23T08:51:00;8.60;;;5.53;;
11328;SDS011;5719;42.714;23.732;2024-03-23T08:53:27;10.98;;;6.30;;
11328;SDS011;5719;42.714;23.732;2024-03-23T08:55:54;11.55;;;6.90;;
11328;SDS011;5719;42.714;23.732;2024-03-23T08:58:20;8.45;;;5.93;;
11328;SDS011;5719;42.714;23.732;2024-03-23T09:00:48;14.02;;;5.93;;
11328;SDS011;5719;42.714;23.732;2024-03-23T09:03:14;9.32;;;6.05;;
11328;SDS011;5719;42.714;23.732;2024-03-23T09:05:41;12.00;;;6.22;;
11328;SDS011;5719;42.714;23.732;2024-03-23T09:08:07;9.43;;;6.00;;
11328;SDS011;5719;42.714;23.732;2024-03-23T09:10:35;9.10;;;5.65;;
11328;SDS011;5719;42.714;23.732;2024-03-23T09:13:03;8.35;;;6.22;;
11328;SDS011;5719;42.714;23.732;2024-03-23T09:15:30;10.88;;;6.72;;
11328;SDS011;5719;42.714;23.732;2024-03-23T09:17:58;11.57;;;7.35;;
11328;SDS011;5719;42.714;23.732;2024-03-23T09:20:25;13.68;;;6.90;;
11328;SDS011;5719;42.714;23.732;2024-03-23T09:22:51;10.57;;;7.10;;
11328;SDS011;5719;42.714;23.732;2024-03-23T09:25:18;12.60;;;7.40;;
11328;SDS011;5719;42.714;23.732;2024-03-23T09:27:45;8.68;;;5.57;;
11328;SDS011;5719;42.714;23.732;2024-03-23T09:30:13;11.70;;;7.18;;
11328;SDS011;5719;42.714;23.732;2024-03-23T09:32:39;12.23;;;6.75;;
11328;SDS011;5719;42.714;23.732;2024-03-23T09:35:07;9.75;;;5.88;;
11328;SDS011;5719;42.714;23.732;2024-03-23T09:37:33;12.43;;;6.50;;
11328;SDS011;5719;42.714;23.732;2024-03-23T09:40:00;13.20;;;6.05;;
11328;SDS011;5719;42.714;23.732;2024-03-23T09:42:26;12.70;;;6.55;;
11328;SDS011;5719;42.714;23.732;2024-03-23T09:44:52;8.20;;;4.95;;
11328;SDS011;5719;42.714;23.732;2024-03-23T09:47:19;9.00;;;5.40;;
11328;SDS011;5719;42.714;23.732;2024-03-23T09:49:46;10.25;;;5.93;;
11328;SDS011;5719;42.714;23.732;2024-03-23T09:52:13;7.00;;;4.80;;
11328;SDS011;5719;42.714;23.732;2024-03-23T09:54:40;8.40;;;5.95;;
11328;SDS011;5719;42.714;23.732;2024-03-23T09:57:06;10.95;;;5.50;;
11328;SDS011;5719;42.714;23.732;2024-03-23T09:59:33;10.63;;;4.90;;
11328;SDS011;5719;42.714;23.732;2024-03-23T10:01:59;6.30;;;4.70;;
11328;SDS011;5719;42.714;23.732;2024-03-23T10:04:36;9.85;;;5.30;;
11328;SDS011;5719;42.714;23.732;2024-03-23T10:07:09;10.43;;;4.72;;
11328;SDS011;5719;42.714;23.732;2024-03-23T10:09:38;10.02;;;5.00;;
11328;SDS011;5719;42.714;23.732;2024-03-23T10:12:08;7.03;;;4.95;;
11328;SDS011;5719;42.714;23.732;2024-03-23T10:14:36;7.60;;;4.82;;
11328;SDS011;5719;42.714;23.732;2024-03-23T10:19:49;4.93;;;4.07;;
11328;SDS011;5719;42.714;23.732;2024-03-23T10:22:17;6.47;;;4.05;;
11328;SDS011;5719;42.714;23.732;2024-03-23T10:24:45;4.10;;;3.30;;
11328;SDS011;5719;42.714;23.732;2024-03-23T10:27:15;5.18;;;3.78;;
11328;SDS011;5719;42.714;23.732;2024-03-23T10:29:42;6.30;;;3.80;;
11328;SDS011;5719;42.714;23.732;2024-03-23T10:32:09;3.75;;;3.42;;
11328;SDS011;5719;42.714;23.732;2024-03-23T10:34:36;5.20;;;3.15;;
11328;SDS011;5719;42.714;23.732;2024-03-23T10:37:04;3.72;;;2.83;;
11328;SDS011;5719;42.714;23.732;2024-03-23T10:39:31;4.88;;;3.20;;
11328;SDS011;5719;42.714;23.732;2024-03-23T10:42:01;7.20;;;2.95;;
11328;SDS011;5719;42.714;23.732;2024-03-23T10:44:28;5.82;;;3.25;;
11328;SDS011;5719;42.714;23.732;2024-03-23T10:46:56;3.28;;;2.75;;
11328;SDS011;5719;42.714;23.732;2024-03-23T10:49:25;4.97;;;3.70;;
11328;SDS011;5719;42.714;23.732;2024-03-23T10:51:54;4.22;;;3.22;;
11328;SDS011;5719;42.714;23.732;2024-03-23T10:54:20;2.85;;;2.65;;
11328;SDS011;5719;42.714;23.732;2024-03-23T10:56:48;7.25;;;3.03;;
11328;SDS011;5719;42.714;23.732;2024-03-23T10:59:18;4.97;;;2.97;;
11328;SDS011;5719;42.714;23.732;2024-03-23T11:01:54;6.45;;;2.83;;
11328;SDS011;5719;42.714;23.732;2024-03-23T11:04:31;3.03;;;2.75;;
11328;SDS011;5719;42.714;23.732;2024-03-23T11:07:01;4.88;;;2.78;;
11328;SDS011;5719;42.714;23.732;2024-03-23T11:09:40;7.63;;;2.90;;
11328;SDS011;5719;42.714;23.732;2024-03-23T11:12:26;4.85;;;3.15;;
11328;SDS011;5719;42.714;23.732;2024-03-23T11:14:55;2.70;;;2.50;;
11328;SDS011;5719;42.714;23.732;2024-03-23T11:17:24;3.38;;;2.45;;
11328;SDS011;5719;42.714;23.732;2024-03-23T11:19:54;3.45;;;3.13;;
11328;SDS011;5719;42.714;23.732;2024-03-23T11:22:37;3.92;;;2.65;;
11328;SDS011;5719;42.714;23.732;2024-03-23T11:25:08;4.10;;;2.42;;
11328;SDS011;5719;42.714;23.732;2024-03-23T11:27:45;2.75;;;2.33;;
11328;SDS011;5719;42.714;23.732;2024-03-23T11:30:14;4.78;;;2.60;;
11328;SDS011;5719;42.714;23.732;2024-03-23T11:32:42;2.45;;;2.25;;
11328;SDS011;5719;42.714;23.732;2024-03-23T11:35:10;2.63;;;2.33;;
11328;SDS011;5719;42.714;23.732;2024-03-23T11:37:37;6.15;;;2.50;;
11328;SDS011;5719;42.714;23.732;2024-03-23T11:40:19;2.03;;;1.83;;
11328;SDS011;5719;42.714;23.732;2024-03-23T11:42:46;2.47;;;2.00;;
11328;SDS011;5719;42.714;23.732;2024-03-23T11:45:14;3.30;;;2.72;;
11328;SDS011;5719;42.714;23.732;2024-03-23T11:47:41;2.22;;;2.00;;
11328;SDS011;5719;42.714;23.732;2024-03-23T11:50:07;2.75;;;2.53;;
11328;SDS011;5719;42.714;23.732;2024-03-23T11:52:34;2.97;;;2.15;;
11328;SDS011;5719;42.714;23.732;2024-03-23T11:55:03;3.67;;;2.47;;
11328;SDS011;5719;42.714;23.732;2024-03-23T11:57:30;4.13;;;2.55;;
11328;SDS011;5719;42.714;23.732;2024-03-23T11:59:56;2.35;;;2.10;;
11328;SDS011;5719;42.714;23.732;2024-03-23T12:02:24;2.35;;;2.10;;
11328;SDS011;5719;42.714;23.732;2024-03-23T12:04:50;2.30;;;2.10;;
11328;SDS011;5719;42.714;23.732;2024-03-23T12:07:18;3.63;;;2.15;;
11328;SDS011;5719;42.714;23.732;2024-03-23T12:09:45;6.18;;;2.90;;
11328;SDS011;5719;42.714;23.732;2024-03-23T12:12:13;4.40;;;3.00;;
11328;SDS011;5719;42.714;23.732;2024-03-23T12:14:41;5.60;;;2.90;;
11328;SDS011;5719;42.714;23.732;2024-03-23T12:17:08;2.85;;;2.45;;
11328;SDS011;5719;42.714;23.732;2024-03-23T12:19:36;5.55;;;2.88;;
11328;SDS011;5719;42.714;23.732;2024-03-23T12:22:03;3.22;;;2.92;;
11328;SDS011;5719;42.714;23.732;2024-03-23T12:24:30;3.75;;;2.72;;
11328;SDS011;5719;42.714;23.732;2024-03-23T12:26:59;6.85;;;3.25;;
11328;SDS011;5719;42.714;23.732;2024-03-23T12:29:27;3.30;;;2.78;;
11328;SDS011;5719;42.714;23.732;2024-03-23T12:31:55;3.40;;;3.10;;
11328;SDS011;5719;42.714;23.732;2024-03-23T12:34:21;4.47;;;3.33;;
11328;SDS011;5719;42.714;23.732;2024-03-23T12:36:49;5.35;;;2.80;;
11328;SDS011;5719;42.714;23.732;2024-03-23T12:39:15;12.02;;;2.88;;
11328;SDS011;5719;42.714;23.732;2024-03-23T12:41:41;5.70;;;3.00;;
11328;SDS011;5719;42.714;23.732;2024-03-23T12:44:07;3.33;;;2.53;;
11328;SDS011;5719;42.714;23.732;2024-03-23T12:46:36;3.47;;;3.13;;
11328;SDS011;5719;42.714;23.732;2024-03-23T12:49:02;4.25;;;2.60;;
11328;SDS011;5719;42.714;23.732;2024-03-23T12:51:29;3.80;;;3.00;;
11328;SDS011;5719;42.714;23.732;2024-03-23T12:53:56;7.25;;;2.90;;
11328;SDS011;5719;42.714;23.732;2024-03-23T12:56:23;5.95;;;3.22;;
11328;SDS011;5719;42.714;23.732;2024-03-23T12:58:49;9.68;;;2.88;;
11328;SDS011;5719;42.714;23.732;2024-03-23T13:01:16;4.07;;;3.08;;
11328;SDS011;5719;42.714;23.732;2024-03-23T13:03:42;5.97;;;3.20;;
11328;SDS011;5719;42.714;23.732;2024-03-23T13:06:10;10.52;;;3.28;;
11328;SDS011;5719;42.714;23.732;2024-03-23T13:08:36;3.88;;;3.00;;
11328;SDS011;5719;42.714;23.732;2024-03-23T13:11:04;4.43;;;2.90;;
11328;SDS011;5719;42.714;23.732;2024-03-23T13:13:30;3.33;;;2.90;;
11328;SDS011;5719;42.714;23.732;2024-03-23T13:15:58;4.85;;;3.17;;
11328;SDS011;5719;42.714;23.732;2024-03-23T13:18:24;5.82;;;3.53;;
11328;SDS011;5719;42.714;23.732;2024-03-23T13:20:51;5.93;;;3.42;;
11328;SDS011;5719;42.714;23.732;2024-03-23T13:23:17;9.32;;;4.55;;
11328;SDS011;5719;42.714;23.732;2024-03-23T13:25:49;9.90;;;4.40;;
11328;SDS011;5719;42.714;23.732;2024-03-23T13:28:16;11.25;;;4.00;;
11328;SDS011;5719;42.714;23.732;2024-03-23T13:30:49;8.65;;;4.57;;
11328;SDS011;5719;42.714;23.732;2024-03-23T13:33:16;18.45;;;9.43;;
11328;SDS011;5719;42.714;23.732;2024-03-23T13:35:48;9.77;;;3.72;;
11328;SDS011;5719;42.714;23.732;2024-03-23T13:38:14;18.10;;;7.03;;
11328;SDS011;5719;42.714;23.732;2024-03-23T13:40:48;5.60;;;3.50;;
11328;SDS011;5719;42.714;23.732;2024-03-23T13:43:17;7.32;;;3.63;;
11328;SDS011;5719;42.714;23.732;2024-03-23T13:45:44;6.82;;;3.30;;
11328;SDS011;5719;42.714;23.732;2024-03-23T13:48:10;5.25;;;3.00;;
11328;SDS011;5719;42.714;23.732;2024-03-23T13:50:37;7.57;;;3.17;;
11328;SDS011;5719;42.714;23.732;2024-03-23T13:53:02;9.38;;;6.50;;
11328;SDS011;5719;42.714;23.732;2024-03-23T13:55:29;22.33;;;4.75;;
11328;SDS011;5719;42.714;23.732;2024-03-23T13:57:56;12.35;;;3.25;;
11328;SDS011;5719;42.714;23.732;2024-03-23T14:00:24;8.50;;;4.68;;
11328;SDS011;5719;42.714;23.732;2024-03-23T14:02:50;4.70;;;3.13;;
11328;SDS011;5719;42.714;23.732;2024-03-23T14:05:16;15.82;;;3.70;;
11328;SDS011;5719;42.714;23.732;2024-03-23T14:07:42;4.70;;;3.28;;
11328;SDS011;5719;42.714;23.732;2024-03-23T14:10:09;12.07;;;8.10;;
11328;SDS011;5719;42.714;23.732;2024-03-23T14:12:36;8.98;;;4.63;;
11328;SDS011;5719;42.714;23.732;2024-03-23T14:15:06;9.98;;;3.40;;
11328;SDS011;5719;42.714;23.732;2024-03-23T14:17:33;6.13;;;4.45;;
11328;SDS011;5719;42.714;23.732;2024-03-23T14:20:00;6.97;;;4.15;;
11328;SDS011;5719;42.714;23.732;2024-03-23T14:22:26;7.85;;;5.40;;
11328;SDS011;5719;42.714;23.732;2024-03-23T14:24:53;7.47;;;4.70;;
11328;SDS011;5719;42.714;23.732;2024-03-23T14:27:19;12.95;;;10.02;;
11328;SDS011;5719;42.714;23.732;2024-03-23T14:29:46;9.82;;;5.28;;
11328;SDS011;5719;42.714;23.732;2024-03-23T14:32:12;14.13;;;7.90;;
11328;SDS011;5719;42.714;23.732;2024-03-23T14:34:41;8.77;;;4.07;;
11328;SDS011;5719;42.714;23.732;2024-03-23T14:37:07;9.43;;;4.80;;
11328;SDS011;5719;42.714;23.732;2024-03-23T14:39:34;6.65;;;3.67;;
11328;SDS011;5719;42.714;23.732;2024-03-23T14:41:59;9.23;;;4.60;;
11328;SDS011;5719;42.714;23.732;2024-03-23T14:44:26;11.25;;;3.90;;
11328;SDS011;5719;42.714;23.732;2024-03-23T14:46:53;6.82;;;3.35;;
11328;SDS011;5719;42.714;23.732;2024-03-23T14:49:20;16.55;;;5.20;;
11328;SDS011;5719;42.714;23.732;2024-03-23T14:51:47;11.02;;;3.92;;
11328;SDS011;5719;42.714;23.732;2024-03-23T14:54:14;6.10;;;3.70;;
11328;SDS011;5719;42.714;23.732;2024-03-23T14:56:40;9.57;;;4.90;;
11328;SDS011;5719;42.714;23.732;2024-03-23T14:59:07;5.65;;;3.30;;
11328;SDS011;5719;42.714;23.732;2024-03-23T15:01:33;8.68;;;4.15;;
11328;SDS011;5719;42.714;23.732;2024-03-23T15:04:00;8.80;;;3.85;;
11328;SDS011;5719;42.714;23.732;2024-03-23T15:06:25;6.40;;;3.53;;
11328;SDS011;5719;42.714;23.732;2024-03-23T15:08:54;7.97;;;3.35;;
11328;SDS011;5719;42.714;23.732;2024-03-23T15:11:19;4.25;;;3.10;;
11328;SDS011;5719;42.714;23.732;2024-03-23T15:13:46;9.15;;;3.60;;
11328;SDS011;5719;42.714;23.732;2024-03-23T15:16:16;9.00;;;3.45;;
11328;SDS011;5719;42.714;23.732;2024-03-23T15:18:45;13.68;;;6.57;;
11328;SDS011;5719;42.714;23.732;2024-03-23T15:21:11;8.82;;;5.07;;
11328;SDS011;5719;42.714;23.732;2024-03-23T15:23:40;4.88;;;3.45;;
11328;SDS011;5719;42.714;23.732;2024-03-23T15:26:10;10.65;;;3.90;;
11328;SDS011;5719;42.714;23.732;2024-03-23T15:28:36;12.40;;;3.75;;
11328;SDS011;5719;42.714;23.732;2024-03-23T15:31:07;6.18;;;4.32;;
11328;SDS011;5719;42.714;23.732;2024-03-23T15:33:34;13.77;;;4.35;;
11328;SDS011;5719;42.714;23.732;2024-03-23T15:36:01;11.48;;;4.10;;
11328;SDS011;5719;42.714;23.732;2024-03-23T15:38:30;6.15;;;3.30;;
11328;SDS011;5719;42.714;23.732;2024-03-23T15:40:56;7.32;;;3.25;;
11328;SDS011;5719;42.714;23.732;2024-03-23T15:43:25;7.00;;;3.20;;
11328;SDS011;5719;42.714;23.732;2024-03-23T15:45:55;4.40;;;2.97;;